Time;durP1;ratioP1;P1;durP2;ratioP2;P2;SDS_P1;SDS_P2;PMS_P1;PMS_P2;Temp;Humidity;BMP_temperature;BMP_pressure;BME280_temperature;BME280_humidity;BME280_pressure;Samples;Min_cycle;Max_cycle;Signal;HPM_P1;HPM_P2
2022/03/04 00:01:03;;;;;;;160.25;74.63;;;;;;;12.22;100.00;99132.47;4926311;29;20047;-69
2022/03/04 00:03:52;;;;;;;162.50;71.47;;;;;;;12.31;100.00;99139.94;4927087;29;20110;-68
2022/03/04 00:06:34;;;;;;;164.10;73.70;;;;;;;12.27;100.00;99133.19;4927039;29;20677;-69
2022/03/04 00:09:23;;;;;;;159.82;73.03;;;;;;;12.20;100.00;99144.59;4908318;29;20056;-69
2022/03/04 00:12:07;;;;;;;163.32;73.90;;;;;;;12.13;100.00;99138.75;4909935;28;20063;-69
2022/03/04 00:14:56;;;;;;;149.80;71.07;;;;;;;12.11;100.00;99142.28;4908030;29;20569;-69
2022/03/04 00:17:38;;;;;;;144.35;67.55;;;;;;;12.19;100.00;99137.75;4908415;29;20176;-69
2022/03/04 00:20:27;;;;;;;139.32;66.68;;;;;;;12.18;100.00;99136.06;4908340;29;20080;-68
2022/03/04 00:23:09;;;;;;;142.93;65.85;;;;;;;12.15;100.00;99138.72;4913130;28;20138;-68
2022/03/04 00:25:57;;;;;;;146.48;67.32;;;;;;;12.17;100.00;99142.09;4923402;28;20113;-68
2022/03/04 00:28:45;;;;;;;143.07;66.72;;;;;;;12.22;100.00;99135.06;4924850;28;20135;-69
2022/03/04 00:31:33;;;;;;;149.13;68.13;;;;;;;12.08;100.00;99139.78;4911934;29;20455;-69
2022/03/04 00:34:15;;;;;;;140.82;64.70;;;;;;;12.05;100.00;99142.47;4909340;29;20148;-68
2022/03/04 00:37:04;;;;;;;141.45;62.10;;;;;;;12.10;100.00;99145.75;4910989;29;20051;-69
2022/03/04 00:39:46;;;;;;;136.23;63.95;;;;;;;12.07;100.00;99145.84;4911319;29;20136;-69
2022/03/04 00:42:35;;;;;;;134.52;61.15;;;;;;;12.10;100.00;99156.09;4911435;29;20044;-68
2022/03/04 00:45:17;;;;;;;122.85;58.20;;;;;;;12.17;100.00;99157.59;4924402;29;20060;-68
2022/03/04 00:48:06;;;;;;;122.93;54.40;;;;;;;12.06;100.00;99164.78;4931083;29;20103;-69
2022/03/04 00:50:48;;;;;;;104.13;52.53;;;;;;;12.10;100.00;99166.41;4930132;29;20063;-69
2022/03/04 00:53:37;;;;;;;102.97;51.85;;;;;;;12.01;100.00;99166.66;4928528;29;20070;-69
2022/03/04 00:56:19;;;;;;;107.22;50.92;;;;;;;12.04;100.00;99161.44;4872635;29;20052;-69
2022/03/04 00:59:07;;;;;;;93.80;48.25;;;;;;;12.02;100.00;99163.19;4911383;29;20127;-69
2022/03/04 01:01:50;;;;;;;91.97;47.53;;;;;;;12.01;100.00;99172.69;4910819;29;20052;-69
2022/03/04 01:04:39;;;;;;;103.68;50.70;;;;;;;11.97;100.00;99157.34;4910867;29;20051;-68
2022/03/04 01:07:21;;;;;;;96.15;49.63;;;;;;;11.92;100.00;99162.59;4920975;29;20463;-68
2022/03/04 01:10:10;;;;;;;102.45;50.78;;;;;;;11.96;100.00;99171.13;4942658;29;20060;-68
2022/03/04 01:12:52;;;;;;;100.25;50.75;;;;;;;11.96;100.00;99178.88;4914784;28;20048;-69
2022/03/04 01:15:41;;;;;;;97.18;52.35;;;;;;;11.99;100.00;99178.78;4929684;29;20130;-68
2022/03/04 01:18:23;;;;;;;102.55;53.67;;;;;;;12.00;100.00;99181.31;4929214;29;20056;-68
2022/03/04 01:21:12;;;;;;;102.88;52.15;;;;;;;12.00;100.00;99177.88;4927563;28;20048;-68
2022/03/04 01:23:54;;;;;;;92.35;49.80;;;;;;;12.02;100.00;99186.44;4928016;28;20653;-69
2022/03/04 01:26:43;;;;;;;91.82;47.17;;;;;;;12.05;100.00;99188.94;4927408;29;20052;-69
2022/03/04 01:29:25;;;;;;;92.32;47.47;;;;;;;12.12;100.00;99196.47;4928994;29;20058;-69
2022/03/04 01:32:14;;;;;;;88.10;43.85;;;;;;;12.13;100.00;99189.59;4929385;29;20052;-68
2022/03/04 01:34:56;;;;;;;83.15;44.35;;;;;;;12.18;100.00;99195.47;4929971;29;20055;-68
2022/03/04 01:37:47;;;;;;;82.80;44.38;;;;;;;12.20;100.00;99199.69;4929288;29;20143;-69
2022/03/04 01:40:29;;;;;;;87.22;45.10;;;;;;;12.20;100.00;99193.69;4928366;29;20075;-69
2022/03/04 01:43:18;;;;;;;87.32;45.47;;;;;;;12.30;100.00;99191.66;4928646;29;20459;-68
2022/03/04 01:46:16;;;;;;;95.53;47.58;;;;;;;12.26;100.00;99196.94;4924947;29;20062;-70
2022/03/04 01:49:05;;;;;;;102.47;47.85;;;;;;;12.30;100.00;99191.66;4925964;29;20055;-69
2022/03/04 01:51:47;;;;;;;94.00;49.72;;;;;;;12.30;100.00;99199.41;4910254;29;20973;-68
2022/03/04 01:54:36;;;;;;;98.43;50.47;;;;;;;12.36;100.00;99200.09;4918962;29;20052;-69
2022/03/04 01:57:18;;;;;;;104.18;50.33;;;;;;;12.45;100.00;99202.41;4909932;29;20059;-68
2022/03/04 02:00:06;;;;;;;104.10;54.85;;;;;;;12.54;100.00;99207.28;4910144;29;20055;-69
2022/03/04 02:02:57;;;;;;;108.50;57.08;;;;;;;12.57;100.00;99214.97;4909968;29;20052;-68
2022/03/04 02:05:38;;;;;;;;;;;;;;;12.57;100.00;99209.81;4910640;29;20059;-69
2022/03/04 02:08:32;;;;;;;114.95;57.85;;;;;;;12.61;100.00;99216.56;4925815;29;19927;-69
2022/03/04 02:11:08;;;;;;;113.72;60.50;;;;;;;12.70;100.00;99219.75;4928299;29;20654;-67
2022/03/04 02:14:03;;;;;;;120.25;59.47;;;;;;;12.94;100.00;99229.38;4930836;28;20071;-69
2022/03/04 02:17:07;;;;;;;115.57;59.00;;;;;;;13.00;100.00;99227.47;4926097;29;20555;-68
2022/03/04 02:20:04;;;;;;;109.68;55.88;;;;;;;13.05;100.00;99211.78;4923386;28;20043;-68
2022/03/04 02:22:40;;;;;;;99.13;54.65;;;;;;;13.14;100.00;99221.03;4925121;28;20054;-69
2022/03/04 02:25:28;;;;;;;110.50;55.72;;;;;;;13.24;100.00;99222.44;4926623;29;20063;-69
2022/03/04 02:28:16;;;;;;;108.00;53.78;;;;;;;13.47;100.00;99221.69;4922214;28;20047;-69
2022/03/04 02:30:58;;;;;;;101.55;52.97;;;;;;;13.66;100.00;99217.56;4918231;29;20100;-68
2022/03/04 02:33:46;;;;;;;85.32;48.33;;;;;;;13.74;100.00;99223.34;4921448;28;20139;-69
2022/03/04 02:36:42;;;;;;;85.40;45.80;;;;;;;13.92;100.00;99237.41;4921574;28;20059;-69
2022/03/04 02:39:18;;;;;;;95.63;46.40;;;;;;;14.15;100.00;99235.69;4905979;29;20044;-69
2022/03/04 02:42:13;;;;;;;88.40;43.50;;;;;;;14.63;100.00;99247.81;4931057;29;20067;-68
2022/03/04 02:44:49;;;;;;;75.50;42.35;;;;;;;15.05;100.00;99249.66;4920145;29;20047;-68
2022/03/04 02:47:44;;;;;;;72.60;39.25;;;;;;;15.47;100.00;99252.31;4919696;28;20066;-68
2022/03/04 02:50:20;;;;;;;80.32;39.50;;;;;;;15.70;100.00;99257.44;4917093;29;20108;-67
2022/03/04 02:53:16;;;;;;;67.35;38.30;;;;;;;16.09;100.00;99262.69;4924554;29;20115;-67
2022/03/04 02:55:51;;;;;;;71.35;40.30;;;;;;;16.24;100.00;99256.84;4923005;29;20047;-68
2022/03/04 02:58:45;;;;;;;76.60;41.22;;;;;;;16.47;100.00;99266.22;4908570;29;20447;-68
2022/03/04 03:01:21;;;;;;;64.93;39.20;;;;;;;16.83;100.00;99271.56;4919011;29;20055;-68
2022/03/04 03:04:18;;;;;;;74.50;37.97;;;;;;;16.95;100.00;99270.97;4909631;29;20052;-68
2022/03/04 03:06:54;;;;;;;62.00;36.80;;;;;;;17.31;100.00;99270.19;4914073;29;20450;-68
2022/03/04 03:09:49;;;;;;;57.13;35.60;;;;;;;17.33;100.00;99276.13;4927725;29;20143;-68
2022/03/04 03:12:37;;;;;;;70.10;38.88;;;;;;;17.21;100.00;99282.78;4927346;28;20054;-68
2022/03/04 03:15:33;;;;;;;61.30;38.85;;;;;;;17.29;100.00;99280.66;4908333;29;20044;-68
2022/03/04 03:18:08;;;;;;;66.30;39.42;;;;;;;17.37;100.00;99273.31;4919682;29;20792;-68
2022/03/04 03:21:05;;;;;;;59.33;39.88;;;;;;;17.75;100.00;99273.25;4920416;29;20056;-68
2022/03/04 03:23:40;;;;;;;59.80;40.05;;;;;;;18.14;100.00;99276.44;4927271;28;20059;-68
2022/03/04 03:26:35;;;;;;;61.60;37.05;;;;;;;18.17;100.00;99276.28;4908454;29;20059;-68
2022/03/04 03:29:11;;;;;;;56.80;33.60;;;;;;;18.17;100.00;99284.13;4903524;29;20507;-68
2022/03/04 03:32:06;;;;;;;54.40;30.42;;;;;;;18.26;100.00;99280.19;4909732;29;20106;-69
2022/03/04 03:34:42;;;;;;;44.38;26.83;;;;;;;18.46;100.00;99287.81;4903718;29;20131;-68
2022/03/04 03:37:37;;;;;;;40.22;25.70;;;;;;;18.72;100.00;99292.53;4918823;29;20067;-68
2022/03/04 03:40:13;;;;;;;44.53;25.52;;;;;;;19.20;100.00;99298.63;4921881;29;20059;-68
2022/03/04 03:43:08;;;;;;;36.75;22.83;;;;;;;19.49;100.00;99304.88;4916128;29;20147;-68
2022/03/04 03:45:43;;;;;;;35.38;21.35;;;;;;;19.62;100.00;99308.50;4919785;29;20058;-68
2022/03/04 03:48:41;;;;;;;39.10;21.27;;;;;;;20.01;100.00;99304.50;4923973;29;20047;-68
2022/03/04 03:51:16;;;;;;;38.60;21.48;;;;;;;20.47;96.14;99305.28;4933797;28;20043;-69
2022/03/04 03:54:12;;;;;;;38.28;21.17;;;;;;;20.24;94.58;99312.69;4942437;28;20105;-69
2022/03/04 03:56:47;;;;;;;33.97;20.20;;;;;;;20.30;89.75;99315.88;4941300;28;20047;-68
2022/03/04 03:59:43;;;;;;;37.88;20.25;;;;;;;20.54;88.09;99317.03;4937920;28;20043;-69
2022/03/04 04:02:19;;;;;;;35.25;18.80;;;;;;;20.67;84.67;99319.78;4924273;28;20127;-69
2022/03/04 04:05:15;;;;;;;27.85;18.08;;;;;;;20.98;85.67;99312.56;4915846;29;20481;-69
2022/03/04 04:07:50;;;;;;;32.97;18.98;;;;;;;21.42;80.15;99318.56;4920823;28;20060;-69
2022/03/04 04:10:45;;;;;;;33.75;18.00;;;;;;;21.53;76.87;99324.81;4924419;29;20083;-69
2022/03/04 04:13:33;;;;;;;34.75;17.90;;;;;;;21.94;73.00;99321.28;4922590;28;20612;-69
2022/03/04 04:16:27;;;;;;;30.63;15.75;;;;;;;21.87;73.86;99312.13;4923178;29;20123;-68
2022/03/04 04:19:04;;;;;;;30.98;15.00;;;;;;;22.47;73.29;99310.63;4920737;28;20044;-69
2022/03/04 04:22:00;;;;;;;27.05;15.90;;;;;;;22.43;69.41;99319.66;4922546;28;20043;-68
2022/03/04 04:24:35;;;;;;;26.23;13.82;;;;;;;22.74;71.22;99318.44;4921227;28;20085;-69
2022/03/04 04:27:30;;;;;;;24.77;13.55;;;;;;;22.56;68.17;99326.72;4926274;29;20048;-68
2022/03/04 04:30:07;;;;;;;25.90;12.93;;;;;;;22.93;70.47;99323.22;4920278;28;20051;-68
2022/03/04 04:33:04;;;;;;;;;;;;;;;22.97;69.33;99316.81;4927194;28;20072;-68
2022/03/04 04:35:39;;;;;;;24.23;10.90;;;;;;;22.94;68.92;99318.81;4922574;28;20297;-68
2022/03/04 04:38:34;;;;;;;19.00;10.57;;;;;;;23.60;64.14;99323.69;4925322;28;20059;-68
2022/03/04 04:41:09;;;;;;;18.17;9.82;;;;;;;23.42;63.54;99320.56;4913973;29;20060;-68
2022/03/04 04:43:58;;;;;;;23.50;9.68;;;;;;;23.62;63.62;99313.91;4922430;28;20048;-68
2022/03/04 04:46:40;;;;;;;19.08;9.50;;;;;;;23.81;66.48;99322.09;4936875;28;20056;-69
2022/03/04 04:49:36;;;;;;;16.10;9.30;;;;;;;23.70;63.22;99319.44;4905971;29;20055;-69
2022/03/04 04:52:11;;;;;;;18.23;8.55;;;;;;;23.80;64.69;99320.41;4932125;28;20569;-68
2022/03/04 04:55:06;;;;;;;19.13;9.65;;;;;;;23.56;66.36;99317.81;4927597;28;20048;-69
2022/03/04 04:57:41;;;;;;;12.43;8.52;;;;;;;23.92;65.30;99314.25;4926643;28;20499;-68
2022/03/04 05:00:36;;;;;;;20.38;8.57;;;;;;;23.80;65.50;99325.69;4918266;29;20067;-68
2022/03/04 05:03:12;;;;;;;26.15;8.43;;;;;;;24.09;64.11;99320.91;4927686;29;20047;-68
2022/03/04 05:06:07;;;;;;;19.43;6.97;;;;;;;23.54;61.42;99329.41;4927284;29;20047;-68
2022/03/04 05:08:43;;;;;;;13.27;6.50;;;;;;;23.35;60.14;99323.75;4924704;29;20051;-68
2022/03/04 05:11:38;;;;;;;19.80;7.05;;;;;;;23.32;61.27;99327.44;4920139;28;20044;-68
2022/03/04 05:14:26;;;;;;;15.70;5.85;;;;;;;23.25;62.28;99320.94;4916529;28;20132;-67
2022/03/04 05:17:21;;;;;;;13.60;6.85;;;;;;;24.10;65.28;99316.47;4926931;29;20060;-68
2022/03/04 05:19:56;;;;;;;10.90;6.63;;;;;;;23.90;60.66;99320.59;4928161;29;20171;-68
2022/03/04 05:22:44;;;;;;;9.95;6.38;;;;;;;24.22;60.49;99326.09;4926683;29;20051;-67
2022/03/04 05:25:26;;;;;;;17.50;8.48;;;;;;;24.19;63.97;99327.13;4927606;29;20471;-68
2022/03/04 05:28:21;;;;;;;12.73;6.82;;;;;;;24.23;60.75;99327.78;4925553;29;20375;-68
2022/03/04 05:30:56;;;;;;;13.55;6.88;;;;;;;24.61;61.90;99317.78;4925570;29;20373;-69
2022/03/04 05:33:51;;;;;;;12.75;6.80;;;;;;;24.61;60.99;99317.78;4920709;28;20062;-71
2022/03/04 05:36:27;;;;;;;18.33;8.32;;;;;;;24.18;62.84;99328.13;4916632;28;20501;-70
2022/03/04 05:39:22;;;;;;;16.65;7.70;;;;;;;24.57;61.07;99329.53;4920339;28;20058;-70
2022/03/04 05:41:58;;;;;;;12.90;8.45;;;;;;;24.18;63.47;99329.91;4917037;28;20825;-70
2022/03/04 05:44:50;;;;;;;14.45;8.15;;;;;;;24.15;61.94;99315.16;4926189;28;20079;-66
2022/03/04 05:47:38;;;;;;;15.07;7.68;;;;;;;24.18;61.48;99322.00;4919931;29;20078;-71
2022/03/04 05:50:32;;;;;;;17.48;8.32;;;;;;;24.11;62.93;99318.97;4908565;29;20047;-70
2022/03/04 05:53:07;;;;;;;17.08;9.07;;;;;;;24.43;60.69;99319.19;4921178;29;20176;-71
2022/03/04 05:56:02;;;;;;;19.95;8.20;;;;;;;24.43;62.94;99321.81;4925679;29;20052;-72
2022/03/04 05:58:38;;;;;;;21.75;8.35;;;;;;;24.51;62.67;99315.97;4925964;29;20047;-72
2022/03/04 06:01:33;;;;;;;20.60;9.10;;;;;;;24.61;63.29;99324.84;4927277;29;20603;-70
2022/03/04 06:04:08;;;;;;;21.63;9.93;;;;;;;24.55;60.96;99328.81;4927401;29;20048;-72
2022/03/04 06:07:03;;;;;;;14.10;8.15;;;;;;;24.55;62.93;99320.91;4923791;29;20063;-73
2022/03/04 06:09:39;;;;;;;29.80;9.77;;;;;;;24.84;61.65;99323.06;4922386;28;20075;-73
2022/03/04 06:12:33;;;;;;;19.27;9.57;;;;;;;24.56;62.54;99313.84;4916550;29;20059;-73
2022/03/04 06:15:21;;;;;;;15.85;7.55;;;;;;;24.90;61.24;99322.59;4923521;29;20162;-74
2022/03/04 06:18:10;;;;;;;28.20;8.90;;;;;;;24.78;59.95;99317.31;4902205;29;20067;-74
2022/03/04 06:20:52;;;;;;;19.55;9.27;;;;;;;24.20;57.32;99314.81;4905563;29;20062;-73
2022/03/04 06:23:41;;;;;;;13.48;7.78;;;;;;;24.45;64.12;99306.75;4903842;29;20059;-71
2022/03/04 06:26:23;;;;;;;16.30;7.82;;;;;;;24.61;62.06;99307.25;4922849;29;20051;-74
2022/03/04 06:29:12;;;;;;;15.65;9.23;;;;;;;24.77;62.49;99313.00;4916369;29;20059;-73
2022/03/04 06:31:59;;;;;;;18.88;8.60;;;;;;;24.88;64.46;99298.13;4930162;28;20040;-71
2022/03/04 06:34:48;;;;;;;14.73;8.63;;;;;;;24.90;64.45;99296.22;4918337;29;20059;-72
2022/03/04 06:37:30;;;;;;;14.75;7.80;;;;;;;24.62;56.85;99295.75;4916879;29;20052;-70
2022/03/04 06:40:19;;;;;;;18.33;7.55;;;;;;;24.60;58.55;99295.03;4928246;29;20048;-71
2022/03/04 06:43:01;;;;;;;21.85;7.30;;;;;;;24.55;62.14;99284.00;4918722;29;20471;-69
2022/03/04 06:45:52;;;;;;;17.75;8.00;;;;;;;24.71;60.05;99281.00;4918092;29;20059;-69
2022/03/04 06:48:34;;;;;;;17.30;8.35;;;;;;;24.47;57.77;99275.88;4920403;29;20059;-70
2022/03/04 06:51:23;;;;;;;11.77;7.13;;;;;;;24.48;60.84;99269.63;4903498;29;20134;-70
2022/03/04 06:54:12;;;;;;;18.38;7.30;;;;;;;24.61;58.82;99267.72;4918439;29;20055;-70
2022/03/04 06:57:01;;;;;;;15.05;7.38;;;;;;;24.50;58.25;99274.78;4919864;29;20079;-70
2022/03/04 06:59:43;;;;;;;15.13;7.88;;;;;;;24.30;59.19;99271.06;4914390;29;20048;-70
2022/03/04 07:02:32;;;;;;;15.27;8.15;;;;;;;24.35;58.17;99263.63;4915898;29;20058;-72
2022/03/04 07:05:14;;;;;;;15.95;8.27;;;;;;;24.02;58.39;99256.50;4912900;29;20055;-70
2022/03/04 07:08:03;;;;;;;13.45;7.53;;;;;;;24.52;58.10;99254.41;4920014;29;20524;-68
2022/03/04 07:10:45;;;;;;;18.45;7.70;;;;;;;24.33;60.27;99242.69;4916702;29;20044;-68
2022/03/04 07:13:40;;;;;;;14.23;8.13;;;;;;;24.60;60.73;99247.59;4921820;29;20402;-68
2022/03/04 07:16:15;;;;;;;20.40;8.93;;;;;;;24.48;60.20;99242.44;4918337;28;20043;-69
2022/03/04 07:19:10;;;;;;;22.38;8.18;;;;;;;24.58;58.43;99233.72;4912821;28;20693;-69
2022/03/04 07:21:45;;;;;;;19.63;8.23;;;;;;;24.21;59.52;99229.63;4913706;28;20075;-69
2022/03/04 07:24:34;;;;;;;16.42;8.15;;;;;;;24.49;63.64;99212.53;4905461;29;20083;-69
2022/03/04 07:27:17;;;;;;;16.30;8.15;;;;;;;24.73;61.25;99206.16;4576571;28;9999905;-69
2022/03/04 07:30:10;;;;;;;13.60;7.80;;;;;;;24.90;60.61;99198.69;4919818;28;20048;-70
2022/03/04 07:32:59;;;;;;;15.60;7.10;;;;;;;24.62;57.48;99200.88;4902860;29;20123;-71
2022/03/04 07:35:54;;;;;;;18.77;7.57;;;;;;;24.71;59.99;99188.78;4887897;29;20075;-70
2022/03/04 07:38:31;;;;;;;14.35;7.50;;;;;;;24.71;60.41;99192.25;4911723;29;20437;-72
2022/03/04 07:41:20;;;;;;;16.20;7.70;;;;;;;24.70;60.88;99182.66;4925743;29;20051;-71
2022/03/04 07:44:02;;;;;;;16.92;7.55;;;;;;;24.85;60.41;99182.38;4928202;29;20052;-71
2022/03/04 07:46:51;;;;;;;17.05;6.97;;;;;;;24.73;59.64;99190.34;4922762;28;20560;-71
2022/03/04 07:49:33;;;;;;;12.32;6.80;;;;;;;24.41;57.87;99178.88;4906153;29;20565;-70
2022/03/04 07:52:31;;;;;;;15.05;7.10;;;;;;;24.58;61.79;99170.47;4905809;29;20058;-70
2022/03/04 07:55:09;;;;;;;16.15;9.13;;;;;;;24.44;61.83;99160.19;4921018;28;20054;-70
2022/03/04 07:58:04;;;;;;;13.40;8.18;;;;;;;24.54;62.88;99153.22;4894884;29;20079;-70
2022/03/04 08:00:39;;;;;;;17.98;8.88;;;;;;;24.29;63.11;99148.22;4889845;29;21325;-70
2022/03/04 08:03:48;;;;;;;17.83;9.00;;;;;;;24.51;63.41;99148.19;4915549;29;20040;-70
2022/03/04 08:06:30;;;;;;;16.17;7.55;;;;;;;24.44;60.21;99136.47;4919427;28;20067;-70
2022/03/04 08:09:25;;;;;;;17.08;7.90;;;;;;;24.35;60.71;99138.03;4934380;28;20048;-70
2022/03/04 08:12:00;;;;;;;17.70;7.47;;;;;;;23.91;57.93;99123.06;4914184;29;20056;-71
2022/03/04 08:14:55;;;;;;;24.30;7.00;;;;;;;24.13;58.89;99131.91;4908483;29;20052;-71
2022/03/04 08:17:35;;;;;;;16.23;8.87;;;;;;;24.11;59.96;99118.88;4905234;29;20499;-70
2022/03/04 08:20:31;;;;;;;13.45;6.82;;;;;;;23.95;59.22;99116.59;4925135;29;20047;-70
2022/03/04 08:23:06;;;;;;;13.27;6.95;;;;;;;23.58;56.84;99104.63;4921342;29;20055;-70
2022/03/04 08:25:57;;;;;;;12.35;7.72;;;;;;;23.86;59.92;99101.53;4909381;29;20048;-71
2022/03/04 08:28:39;;;;;;;11.98;7.72;;;;;;;23.81;60.63;99097.56;4889081;29;20055;-70
2022/03/04 08:31:28;;;;;;;15.55;7.43;;;;;;;23.98;61.55;99094.47;4924380;28;20071;-70
2022/03/04 08:34:10;;;;;;;11.75;7.00;;;;;;;23.95;59.86;99097.34;4926741;29;20055;-69
2022/03/04 08:37:05;;;;;;;18.42;6.72;;;;;;;23.98;60.43;99102.38;4921665;29;20051;-69
2022/03/04 08:39:40;;;;;;;16.83;6.78;;;;;;;23.71;59.30;99099.22;4926795;29;20075;-69
2022/03/04 08:42:29;;;;;;;14.10;6.88;;;;;;;24.01;63.05;99089.81;4928416;29;20536;-70
2022/03/04 08:45:14;;;;;;;11.40;6.97;;;;;;;23.91;61.41;99091.50;4928249;29;20050;-69
2022/03/04 08:48:06;;;;;;;14.95;7.53;;;;;;;23.99;62.97;99089.09;4928031;29;20690;-69
2022/03/04 08:50:48;;;;;;;12.63;6.78;;;;;;;23.88;62.18;99081.19;4913549;29;20439;-70
2022/03/04 08:53:37;;;;;;;19.67;6.40;;;;;;;23.96;62.80;99084.06;4928246;29;20111;-69
2022/03/04 08:56:18;;;;;;;11.00;7.07;;;;;;;23.92;62.56;99085.28;4928265;29;20347;-69
2022/03/04 08:59:13;;;;;;;16.77;7.13;;;;;;;23.83;61.36;99085.97;4927091;29;20275;-70
2022/03/04 09:01:48;;;;;;;13.32;7.30;;;;;;;23.87;61.85;99079.50;4929292;29;20048;-70
2022/03/04 09:04:37;;;;;;;18.30;6.25;;;;;;;23.71;60.05;99063.25;4923342;29;20063;-71
2022/03/04 09:07:19;;;;;;;16.55;6.82;;;;;;;23.62;62.32;99059.56;4931949;28;20142;-70
2022/03/04 09:10:09;;;;;;;19.40;7.22;;;;;;;23.67;62.20;99067.06;4939956;29;20078;-70
2022/03/04 09:12:58;;;;;;;16.42;7.50;;;;;;;23.58;62.37;99062.53;4924283;29;20060;-70
2022/03/04 09:15:40;;;;;;;16.27;7.68;;;;;;;23.52;61.48;99063.84;4921524;29;20048;-69
2022/03/04 09:18:29;;;;;;;17.17;8.18;;;;;;;23.54;62.55;99066.38;4929477;29;20059;-70
2022/03/04 09:21:11;;;;;;;18.27;7.45;;;;;;;23.45;63.20;99062.63;4911587;29;20634;-70
2022/03/04 09:24:00;;;;;;;14.05;7.03;;;;;;;23.32;63.82;99068.91;4926237;29;20052;-70
2022/03/04 09:26:42;;;;;;;18.83;7.75;;;;;;;23.25;63.01;99061.50;4919748;29;20150;-70
2022/03/04 09:29:31;;;;;;;14.65;7.50;;;;;;;23.42;65.11;99054.94;4927632;29;20058;-70
2022/03/04 09:32:13;;;;;;;14.02;7.53;;;;;;;23.48;63.92;99057.13;4927202;28;20058;-69
2022/03/04 09:35:02;;;;;;;18.80;7.90;;;;;;;23.57;63.38;99055.59;4935914;29;20053;-71
2022/03/04 09:37:45;;;;;;;14.87;7.57;;;;;;;23.54;63.28;99043.53;4929437;29;20755;-71
2022/03/04 09:40:34;;;;;;;16.90;7.50;;;;;;;23.51;64.93;99053.44;4924345;29;20126;-71
2022/03/04 09:43:19;;;;;;;17.77;7.38;;;;;;;23.42;64.23;99051.47;4923508;28;20130;-70
2022/03/04 09:46:08;;;;;;;15.23;8.82;;;;;;;23.31;64.47;99051.47;4924417;28;20328;-69
2022/03/04 09:48:52;;;;;;;13.52;7.55;;;;;;;23.30;64.83;99042.75;4916509;29;20051;-70
2022/03/04 09:51:41;;;;;;;15.18;7.03;;;;;;;23.36;64.38;99051.94;4905723;29;20056;-71
2022/03/04 09:54:27;;;;;;;22.35;8.00;;;;;;;23.37;63.32;99040.47;4918342;28;20059;-70
2022/03/04 09:57:16;;;;;;;18.67;7.93;;;;;;;23.25;63.35;99040.44;4926531;28;20048;-71
2022/03/04 09:59:58;;;;;;;13.38;7.82;;;;;;;23.33;63.90;99031.97;4923477;29;20115;-71
2022/03/04 10:02:47;;;;;;;21.75;9.63;;;;;;;23.23;63.80;99038.88;4917651;29;20052;-70
2022/03/04 10:05:29;;;;;;;16.88;7.65;;;;;;;23.25;65.93;99043.09;4917814;28;20055;-69
2022/03/04 10:08:25;;;;;;;16.95;7.30;;;;;;;23.34;65.28;99038.06;4918019;29;20048;-69
2022/03/04 10:11:25;;;;;;;17.77;8.45;;;;;;;23.21;64.32;99028.50;4913131;28;20666;-70
2022/03/04 10:14:10;;;;;;;17.40;7.68;;;;;;;23.16;63.70;99035.88;4914555;28;20531;-67
2022/03/04 10:17:06;;;;;;;25.98;8.38;;;;;;;23.13;64.01;99027.41;4916655;28;20055;-70
2022/03/04 10:19:54;;;;;;;19.73;7.68;;;;;;;23.19;63.30;99025.16;4918858;28;20517;-70
2022/03/04 10:22:46;;;;;;;13.10;7.88;;;;;;;23.05;63.41;99022.75;4916987;28;20056;-70
2022/03/04 10:25:30;;;;;;;18.25;7.43;;;;;;;23.01;62.21;99015.19;4920135;28;20062;-70
2022/03/04 10:28:28;;;;;;;14.27;7.25;;;;;;;23.00;63.08;99014.34;4920449;28;20036;-70
2022/03/04 10:31:08;;;;;;;20.15;9.02;;;;;;;23.03;62.79;99014.13;4918603;29;20059;-70
2022/03/04 10:34:17;;;;;;;18.00;7.28;;;;;;;22.99;62.93;99011.84;4924341;28;20051;-70
2022/03/04 10:37:11;;;;;;;27.33;7.85;;;;;;;22.94;63.05;99006.09;4922823;28;20043;-69
2022/03/04 10:40:29;;;;;;;16.50;8.35;;;;;;;22.97;62.65;99013.75;4919078;28;20381;-70
2022/03/04 10:43:23;;;;;;;19.55;8.35;;;;;;;22.95;62.01;99015.66;4884553;29;20084;-70
2022/03/04 10:46:06;;;;;;;12.88;6.78;;;;;;;22.85;62.02;99012.88;4912633;29;20053;-70
2022/03/04 10:49:04;;;;;;;13.68;6.53;;;;;;;22.85;62.73;99011.09;4911338;29;20098;-70
2022/03/04 10:52:06;;;;;;;12.80;7.32;;;;;;;22.79;62.32;99006.28;4919536;29;20499;-69
2022/03/04 10:54:57;;;;;;;20.88;7.28;;;;;;;22.74;62.26;99000.56;4912430;29;20064;-70
2022/03/04 10:57:41;;;;;;;14.85;6.53;;;;;;;22.75;62.79;99012.72;4910243;29;20166;-69
2022/03/04 11:00:32;;;;;;;15.85;7.95;;;;;;;22.72;62.43;99015.56;4912696;29;20059;-70
2022/03/04 11:03:29;;;;;;;21.10;7.65;;;;;;;22.76;63.72;99006.50;4917646;28;20051;-69
2022/03/04 11:06:20;;;;;;;20.83;8.05;;;;;;;22.65;63.83;99003.00;4928137;29;20047;-69
2022/03/04 11:09:02;;;;;;;16.98;7.70;;;;;;;22.77;64.48;99002.09;4947122;28;20495;-70
2022/03/04 11:11:51;;;;;;;14.45;6.90;;;;;;;22.71;64.77;98997.28;4916751;29;20425;-70
2022/03/04 11:14:45;;;;;;;17.00;8.05;;;;;;;22.50;65.95;99002.34;4924467;28;20051;-70
2022/03/04 11:17:34;;;;;;;13.80;7.53;;;;;;;22.44;66.91;98994.91;4918121;28;20072;-70
2022/03/04 11:20:16;;;;;;;17.25;7.95;;;;;;;22.36;66.40;98995.47;4920679;28;20155;-69
2022/03/04 11:23:13;;;;;;;13.07;7.25;;;;;;;22.32;66.22;98986.16;4922558;28;20147;-70
2022/03/04 11:26:17;;;;;;;19.95;7.70;;;;;;;22.42;66.75;98975.81;4905029;29;20127;-68
2022/03/04 11:29:06;;;;;;;23.25;7.72;;;;;;;22.26;66.82;98980.50;4910897;29;20063;-69
2022/03/04 11:31:48;;;;;;;13.38;7.47;;;;;;;22.15;67.23;98989.16;4928514;28;20062;-70
2022/03/04 11:34:40;;;;;;;16.65;7.78;;;;;;;22.11;68.17;98987.69;4926368;28;20781;-70
2022/03/04 11:37:28;;;;;;;20.48;7.68;;;;;;;22.08;69.44;98975.66;4925578;28;20047;-69
2022/03/04 11:43:24;;;;;;;19.27;8.43;;;;;;;22.03;69.59;98979.56;4917096;29;20059;-70
2022/03/04 11:46:05;;;;;;;25.40;8.55;;;;;;;22.01;70.03;98974.41;4920344;29;20055;-69
2022/03/04 11:49:36;;;;;;;17.52;7.95;;;;;;;21.94;71.92;98980.19;4929051;29;20115;-70
2022/03/04 11:52:27;;;;;;;14.98;8.00;;;;;;;21.91;71.50;98978.59;4928001;29;20047;-70
2022/03/04 11:55:21;;;;;;;17.85;8.48;;;;;;;21.88;72.28;98965.69;4922620;28;20062;-70
2022/03/04 11:58:09;;;;;;;22.05;9.57;;;;;;;21.80;73.13;98975.06;4909132;29;20473;-69
2022/03/04 12:00:51;;;;;;;19.10;9.98;;;;;;;21.80;73.62;98972.44;4925697;29;20059;-71
2022/03/04 12:04:12;;;;;;;22.20;8.80;;;;;;;21.75;74.24;98964.91;4922496;28;20058;-71
2022/03/04 12:07:17;;;;;;;19.08;9.27;;;;;;;21.74;74.98;98958.81;4933765;29;20131;-72
2022/03/04 12:10:12;;;;;;;14.45;8.65;;;;;;;21.71;75.22;98966.91;4871955;29;20055;-72
2022/03/04 12:13:13;;;;;;;31.33;10.40;;;;;;;21.56;76.92;98961.91;4872861;29;20483;-71
2022/03/04 12:16:04;;;;;;;23.40;10.30;;;;;;;21.45;76.94;98960.03;4891406;29;20072;-72
2022/03/04 12:18:54;;;;;;;19.17;9.40;;;;;;;21.38;77.15;98961.44;4877811;29;20430;-71
2022/03/04 12:21:38;;;;;;;27.30;9.75;;;;;;;21.45;78.58;98957.44;4910862;29;20485;-71
2022/03/04 12:24:35;;;;;;;25.58;9.88;;;;;;;21.40;78.91;98959.50;4903972;29;20135;-71
2022/03/04 12:27:39;;;;;;;27.25;10.35;;;;;;;21.36;78.67;98960.69;4902714;29;20147;-72
2022/03/04 12:30:29;;;;;;;24.92;10.25;;;;;;;21.26;78.53;98957.00;4903896;29;20650;-71
2022/03/04 12:33:12;;;;;;;21.42;9.95;;;;;;;21.17;79.13;98958.50;4905970;29;20053;-71
2022/03/04 12:36:01;;;;;;;23.40;10.43;;;;;;;21.19;79.06;98950.53;4904919;29;20068;-71
2022/03/04 12:38:45;;;;;;;20.50;9.15;;;;;;;21.09;78.90;98946.81;4905233;29;20060;-70
2022/03/04 12:41:39;;;;;;;17.15;9.52;;;;;;;21.14;80.72;98947.38;4907402;29;20779;-72
2022/03/04 12:44:27;;;;;;;35.25;11.73;;;;;;;21.04;81.15;98956.78;4919290;29;20062;-70
2022/03/04 12:47:11;;;;;;;20.48;9.80;;;;;;;21.07;80.92;98956.59;4906191;29;20044;-72
2022/03/04 12:49:59;;;;;;;21.60;8.93;;;;;;;20.85;82.75;98958.03;4884106;29;20104;-71
2022/03/04 12:52:44;;;;;;;24.20;9.65;;;;;;;20.73;82.96;98958.88;4903936;29;20068;-71
2022/03/04 12:55:42;;;;;;;21.92;10.05;;;;;;;20.67;81.41;98954.06;4909318;29;20056;-72